createdAt,value
2017-12-20T00:00:37.737Z,23.50
2017-12-20T00:03:06.582Z,24.47
2017-12-20T00:05:35.447Z,23.57
2017-12-20T00:08:05.066Z,22.67
2017-12-20T00:10:33.886Z,24.03
2017-12-20T00:13:02.750Z,23.50
2017-12-20T00:15:31.592Z,22.80
2017-12-20T00:18:00.444Z,21.03
2017-12-20T00:20:29.282Z,21.90
2017-12-20T00:22:59.426Z,20.50
2017-12-20T00:25:28.259Z,20.47
2017-12-20T00:27:57.173Z,20.30
2017-12-20T00:30:26.020Z,19.70
2017-12-20T00:32:54.923Z,21.00
2017-12-20T00:35:23.550Z,19.90
2017-12-20T00:37:52.178Z,20.40
2017-12-20T00:40:21.546Z,21.57
2017-12-20T00:42:51.183Z,21.17
2017-12-20T00:45:20.039Z,19.60
2017-12-20T00:47:49.650Z,20.80
2017-12-20T00:50:19.282Z,20.20
2017-12-20T00:52:48.126Z,19.90
2017-12-20T00:55:17.017Z,21.60
2017-12-20T00:57:45.861Z,21.23
2017-12-20T01:00:15.424Z,19.60
2017-12-20T01:02:45.039Z,20.90
2017-12-20T01:05:14.834Z,18.20
2017-12-20T01:07:43.709Z,18.43
2017-12-20T01:10:12.527Z,19.57
2017-12-20T01:12:42.135Z,19.27
2017-12-20T01:15:11.762Z,17.53
2017-12-20T01:17:40.606Z,20.47
2017-12-20T01:20:09.844Z,18.93
2017-12-20T01:22:40.066Z,21.00
2017-12-20T01:25:09.690Z,19.50
2017-12-20T01:27:39.303Z,21.07
2017-12-20T01:30:08.163Z,18.30
2017-12-20T01:32:37.002Z,18.10
2017-12-20T01:35:05.839Z,18.97
2017-12-20T01:37:34.691Z,17.80
2017-12-20T01:40:03.537Z,17.30
2017-12-20T01:42:33.160Z,16.60
2017-12-20T01:45:02.783Z,17.17
2017-12-20T01:47:31.643Z,16.90
2017-12-20T01:50:01.258Z,17.40
2017-12-20T01:52:30.107Z,15.17
2017-12-20T01:54:58.930Z,18.07
2017-12-20T01:57:28.542Z,17.27
2017-12-20T01:59:58.143Z,15.77
2017-12-20T02:02:27.778Z,16.77
2017-12-20T02:04:56.590Z,16.50
2017-12-20T02:07:25.456Z,18.00
2017-12-20T02:09:54.273Z,18.17
2017-12-20T02:12:23.122Z,17.23
2017-12-20T02:14:51.965Z,18.00
2017-12-20T02:17:20.806Z,14.50
2017-12-20T02:19:49.651Z,17.33
2017-12-20T02:22:18.490Z,17.73
2017-12-20T02:24:47.351Z,16.50
2017-12-20T02:27:17.524Z,17.60
2017-12-20T02:29:46.379Z,18.33
2017-12-20T02:32:15.561Z,17.10
2017-12-20T02:34:44.960Z,18.63
2017-12-20T02:37:13.810Z,18.03
2017-12-20T02:39:42.656Z,19.07
2017-12-20T02:42:15.247Z,18.30
2017-12-20T02:44:44.091Z,18.50
2017-12-20T02:47:12.931Z,18.77
2017-12-20T02:49:41.770Z,19.20
2017-12-20T02:52:10.616Z,18.27
2017-12-20T02:54:39.456Z,20.83
2017-12-20T02:57:09.080Z,21.70
2017-12-20T02:59:38.715Z,23.17
2017-12-20T03:02:07.552Z,22.40
2017-12-20T03:04:36.382Z,20.37
2017-12-20T03:07:05.253Z,21.20
2017-12-20T03:09:35.714Z,23.50
2017-12-20T03:12:04.573Z,23.37
2017-12-20T03:14:34.176Z,24.23
2017-12-20T03:17:05.671Z,25.13
2017-12-20T03:19:34.526Z,24.87
2017-12-20T03:22:03.393Z,27.30
2017-12-20T03:24:32.225Z,26.90
2017-12-20T03:27:01.067Z,26.53
2017-12-20T03:29:29.931Z,27.33
2017-12-20T03:31:59.538Z,27.00
2017-12-20T03:34:29.176Z,27.57
2017-12-20T03:36:58.015Z,29.87
2017-12-20T03:39:26.866Z,28.90
2017-12-20T03:41:55.752Z,30.53
2017-12-20T03:44:24.590Z,30.70
2017-12-20T03:46:54.236Z,32.63
2017-12-20T03:49:23.090Z,33.17
2017-12-20T03:51:52.708Z,34.47
2017-12-20T03:54:22.315Z,32.30
2017-12-20T03:56:51.926Z,37.23
2017-12-20T03:59:21.558Z,35.37
2017-12-20T04:01:50.394Z,37.27
2017-12-20T04:04:19.229Z,38.97
2017-12-20T04:06:48.840Z,39.10
2017-12-20T04:09:17.712Z,39.73
2017-12-20T04:11:47.326Z,36.90
2017-12-20T04:14:16.195Z,40.97
2017-12-20T04:16:45.825Z,40.90
2017-12-20T04:19:14.662Z,36.67
2017-12-20T04:21:43.520Z,39.70
2017-12-20T04:24:12.359Z,43.57
2017-12-20T04:26:41.204Z,45.50
2017-12-20T04:29:10.036Z,44.53
2017-12-20T04:31:39.642Z,42.57
2017-12-20T04:34:09.259Z,45.80
2017-12-20T04:36:38.107Z,43.10
2017-12-20T04:39:06.963Z,44.63
2017-12-20T04:41:35.807Z,44.30
2017-12-20T04:44:04.902Z,44.43
2017-12-20T04:46:34.506Z,47.07
2017-12-20T04:49:04.126Z,45.17
2017-12-20T04:51:33.763Z,43.87
2017-12-20T04:54:02.610Z,46.73
2017-12-20T04:56:32.231Z,42.30
2017-12-20T04:59:01.877Z,44.57
2017-12-20T05:01:31.762Z,46.40
2017-12-20T05:04:00.616Z,45.97
2017-12-20T05:06:29.478Z,44.30
2017-12-20T05:08:58.322Z,42.93
2017-12-20T05:11:27.952Z,46.23
2017-12-20T05:13:56.807Z,44.47
2017-12-20T05:16:26.523Z,43.13
2017-12-20T05:18:55.391Z,44.47
2017-12-20T05:21:24.239Z,43.03
2017-12-20T05:23:53.096Z,42.80
2017-12-20T05:26:22.735Z,44.80
2017-12-20T05:28:51.540Z,44.80
2017-12-20T05:31:20.378Z,42.77
2017-12-20T05:33:49.214Z,47.83
2017-12-20T05:36:18.078Z,64.47
2017-12-20T05:38:47.705Z,49.33
2017-12-20T05:41:17.300Z,50.70
2017-12-20T05:43:46.145Z,44.43
2017-12-20T05:46:14.990Z,42.60
2017-12-20T05:48:43.835Z,45.07
2017-12-20T05:51:13.458Z,42.70
2017-12-20T05:53:43.089Z,41.07
2017-12-20T05:56:11.957Z,45.90
2017-12-20T05:58:41.558Z,41.47
2017-12-20T06:01:11.180Z,36.07
2017-12-20T06:03:40.054Z,37.37
2017-12-20T06:06:10.515Z,41.60
2017-12-20T06:08:39.361Z,38.07
2017-12-20T06:11:08.195Z,37.50
2017-12-20T06:13:37.047Z,39.33
2017-12-20T06:16:06.661Z,38.33
2017-12-20T06:18:36.263Z,37.77
2017-12-20T06:21:05.870Z,34.80
2017-12-20T06:23:36.275Z,35.87
2017-12-20T06:26:05.179Z,37.35
2017-12-20T06:28:34.873Z,34.57
2017-12-20T06:31:03.679Z,34.92
2017-12-20T06:33:33.329Z,37.20
2017-12-20T06:36:02.173Z,31.90
2017-12-20T06:38:31.027Z,34.27
2017-12-20T06:40:59.893Z,32.60
2017-12-20T06:43:28.732Z,33.13
2017-12-20T06:45:57.600Z,35.17
2017-12-20T06:48:26.490Z,32.07
2017-12-20T06:50:55.327Z,32.97
2017-12-20T06:53:24.932Z,32.10
2017-12-20T06:55:54.554Z,29.67
2017-12-20T06:58:24.182Z,32.87
2017-12-20T07:00:53.011Z,28.17
2017-12-20T07:03:22.641Z,29.13
2017-12-20T07:05:51.488Z,31.60
2017-12-20T07:08:20.346Z,33.57
2017-12-20T07:10:49.186Z,28.20
2017-12-20T07:13:18.044Z,31.30
2017-12-20T07:15:46.914Z,31.17
2017-12-20T07:18:15.760Z,33.03
2017-12-20T07:20:44.621Z,35.23
2017-12-20T07:23:13.463Z,34.80
2017-12-20T07:25:42.462Z,29.43
2017-12-20T07:28:11.313Z,36.17
2017-12-20T07:30:40.957Z,32.43
2017-12-20T07:33:09.807Z,32.33
2017-12-20T07:35:39.423Z,32.93
2017-12-20T07:38:09.056Z,32.97
2017-12-20T07:40:37.883Z,38.40
2017-12-20T07:43:07.607Z,34.77
2017-12-20T07:45:37.256Z,35.30
2017-12-20T07:48:06.110Z,38.90
2017-12-20T07:50:35.710Z,38.40
2017-12-20T07:53:06.027Z,37.90
2017-12-20T07:55:34.904Z,39.90
2017-12-20T07:58:03.726Z,40.03
2017-12-20T08:00:33.355Z,41.37
2017-12-20T08:03:02.175Z,37.27
2017-12-20T08:05:31.055Z,41.33
2017-12-20T08:07:59.879Z,41.80
2017-12-20T08:10:30.300Z,36.43
2017-12-20T08:12:59.114Z,42.00
2017-12-20T08:15:28.766Z,43.87
2017-12-20T08:17:57.625Z,47.60
2017-12-20T08:20:26.450Z,39.40
2017-12-20T08:22:55.331Z,42.20
2017-12-20T08:25:24.932Z,44.97
2017-12-20T08:27:53.757Z,39.03
2017-12-20T08:30:22.910Z,41.30
2017-12-20T08:32:51.762Z,40.93
2017-12-20T08:35:21.374Z,42.70
2017-12-20T08:37:51.004Z,40.13
2017-12-20T08:40:20.506Z,40.17
2017-12-20T08:42:49.383Z,38.90
2017-12-20T08:45:18.268Z,38.47
2017-12-20T08:47:47.875Z,38.40
2017-12-20T08:50:17.480Z,39.70
2017-12-20T08:52:47.096Z,43.07
2017-12-20T08:55:16.375Z,38.43
2017-12-20T08:57:45.380Z,42.47
2017-12-20T09:00:15.034Z,37.20
2017-12-20T09:02:44.035Z,36.80
2017-12-20T09:05:12.925Z,39.50
2017-12-20T09:07:41.760Z,41.10
2017-12-20T09:10:11.378Z,39.73
2017-12-20T09:12:40.229Z,42.90
2017-12-20T09:15:09.838Z,37.77
2017-12-20T09:17:38.687Z,34.97
2017-12-20T09:20:07.539Z,40.27
2017-12-20T09:22:36.463Z,41.00
2017-12-20T09:25:05.364Z,36.40
2017-12-20T09:27:34.208Z,36.57
2017-12-20T09:30:04.554Z,37.03
2017-12-20T09:32:34.164Z,38.97
2017-12-20T09:35:03.794Z,35.53
2017-12-20T09:37:32.714Z,38.00
2017-12-20T09:40:02.266Z,36.30
2017-12-20T09:42:31.869Z,36.27
2017-12-20T09:45:01.488Z,36.57
2017-12-20T09:47:31.135Z,34.57
2017-12-20T09:50:00.003Z,37.07
2017-12-20T09:52:28.855Z,32.40
2017-12-20T09:54:57.691Z,38.97
2017-12-20T09:57:26.531Z,36.77
2017-12-20T09:59:55.368Z,37.80
2017-12-20T10:02:24.731Z,36.90
2017-12-20T10:04:54.419Z,38.50
2017-12-20T10:07:23.238Z,33.27
2017-12-20T10:09:52.867Z,39.20
2017-12-20T10:12:21.731Z,37.27
2017-12-20T10:14:51.317Z,34.93
2017-12-20T10:17:20.155Z,35.23
2017-12-20T10:19:48.992Z,39.60
2017-12-20T10:22:17.847Z,36.57
2017-12-20T10:24:46.690Z,39.50
2017-12-20T10:27:16.327Z,37.73
2017-12-20T10:29:45.158Z,38.70
2017-12-20T10:32:13.999Z,39.27
2017-12-20T10:34:42.943Z,40.47
2017-12-20T10:37:11.752Z,37.53
2017-12-20T10:39:41.381Z,40.80
2017-12-20T10:42:10.234Z,39.77
2017-12-20T10:44:40.054Z,39.77
2017-12-20T10:47:09.667Z,37.40
2017-12-20T10:49:39.286Z,41.67
2017-12-20T10:52:08.914Z,42.37
2017-12-20T10:54:37.768Z,39.30
2017-12-20T10:57:07.356Z,40.97
2017-12-20T10:59:36.186Z,39.13
2017-12-20T11:02:05.045Z,40.97
2017-12-20T11:04:34.698Z,44.60
2017-12-20T11:07:03.535Z,40.90
2017-12-20T11:09:32.423Z,41.27
2017-12-20T11:12:02.192Z,41.00
2017-12-20T11:14:31.068Z,41.40
2017-12-20T11:16:59.907Z,42.00
2017-12-20T11:19:28.759Z,41.40
2017-12-20T11:21:57.603Z,39.10
2017-12-20T11:24:27.244Z,44.10
2017-12-20T11:26:57.644Z,40.47
2017-12-20T11:29:27.791Z,38.93
2017-12-20T11:31:57.395Z,41.30
2017-12-20T11:34:26.228Z,43.77
2017-12-20T11:36:55.723Z,43.87
2017-12-20T11:39:24.555Z,45.43
2017-12-20T11:41:53.406Z,46.10
2017-12-20T11:44:22.231Z,47.77
2017-12-20T11:46:51.870Z,47.23
2017-12-20T11:49:20.735Z,47.50
2017-12-20T11:51:50.383Z,47.23
2017-12-20T11:54:19.231Z,48.80
2017-12-20T11:56:48.111Z,46.47
2017-12-20T11:59:16.955Z,46.50
2017-12-20T12:01:45.823Z,48.73
2017-12-20T12:04:14.675Z,48.23
2017-12-20T12:06:44.287Z,48.77
2017-12-20T12:09:13.191Z,50.23
2017-12-20T12:11:42.834Z,54.50
2017-12-20T12:14:11.670Z,49.30
2017-12-20T12:16:40.523Z,53.47
2017-12-20T12:19:09.398Z,53.30
2017-12-20T12:21:38.252Z,47.03
2017-12-20T12:24:07.876Z,54.00
2017-12-20T12:26:37.486Z,51.37
2017-12-20T12:29:06.346Z,49.97
2017-12-20T12:31:35.186Z,50.47
2017-12-20T12:34:04.034Z,52.30
2017-12-20T12:36:33.682Z,58.33
2017-12-20T12:39:03.319Z,55.97
2017-12-20T12:41:32.197Z,52.30
2017-12-20T12:44:01.067Z,56.90
2017-12-20T12:46:29.910Z,55.70
2017-12-20T12:48:58.760Z,54.03
2017-12-20T12:51:27.619Z,51.80
2017-12-20T12:53:56.460Z,62.57
2017-12-20T12:56:25.319Z,57.80
2017-12-20T12:58:54.179Z,62.20
2017-12-20T13:01:23.817Z,59.50
2017-12-20T13:03:52.655Z,61.63
2017-12-20T13:06:21.505Z,60.30
2017-12-20T13:08:50.366Z,64.93
2017-12-20T13:11:19.973Z,62.83
2017-12-20T13:13:49.590Z,62.53
2017-12-20T13:16:18.534Z,70.20
2017-12-20T13:18:47.350Z,54.93
2017-12-20T13:21:16.982Z,66.47
2017-12-20T13:23:45.846Z,62.17
2017-12-20T13:26:15.510Z,69.03
2017-12-20T13:28:45.162Z,60.70
2017-12-20T13:31:14.006Z,65.63
2017-12-20T13:33:43.662Z,64.50
2017-12-20T13:36:12.519Z,71.87
2017-12-20T13:38:41.356Z,69.03
2017-12-20T13:41:10.211Z,67.00
2017-12-20T13:43:39.845Z,67.50
2017-12-20T13:46:08.696Z,63.70
2017-12-20T13:48:38.342Z,70.70
2017-12-20T13:51:07.187Z,71.40
2017-12-20T13:53:36.796Z,63.30
2017-12-20T13:56:05.634Z,60.87
2017-12-20T13:58:34.486Z,57.70
2017-12-20T14:01:04.118Z,63.80
2017-12-20T14:03:32.975Z,68.40
2017-12-20T14:06:02.627Z,64.40
2017-12-20T14:08:31.472Z,61.13
2017-12-20T14:11:01.090Z,69.17
2017-12-20T14:13:30.706Z,65.40
2017-12-20T14:15:59.558Z,63.90
2017-12-20T14:18:28.473Z,69.77
2017-12-20T14:20:57.295Z,66.30
2017-12-20T14:23:26.415Z,70.07
2017-12-20T14:25:55.286Z,67.60
2017-12-20T14:28:24.118Z,62.57
2017-12-20T14:30:53.740Z,68.77
2017-12-20T14:33:22.614Z,68.47
2017-12-20T14:35:51.485Z,65.83
2017-12-20T14:38:20.306Z,72.83
2017-12-20T14:40:49.162Z,70.10
2017-12-20T14:43:18.004Z,74.33
2017-12-20T14:45:46.886Z,74.77
2017-12-20T14:48:15.755Z,62.97
2017-12-20T14:50:44.606Z,71.47
2017-12-20T14:53:13.446Z,77.67
2017-12-20T14:55:42.303Z,81.53
2017-12-20T14:58:11.993Z,69.60
2017-12-20T15:00:40.844Z,64.27
2017-12-20T15:05:45.142Z,61.43
2017-12-20T15:08:14.775Z,65.90
2017-12-20T15:10:43.675Z,62.03
2017-12-20T15:13:12.634Z,59.63
2017-12-20T15:15:42.245Z,66.80
2017-12-20T15:18:11.873Z,62.47
2017-12-20T15:20:40.730Z,56.80
2017-12-20T15:23:09.566Z,63.37
2017-12-20T15:25:38.536Z,65.77
2017-12-20T15:28:07.646Z,61.83
2017-12-20T15:30:39.819Z,94.40
2017-12-20T15:33:08.745Z,66.93
2017-12-20T15:35:37.807Z,64.00
2017-12-20T15:38:06.723Z,76.27
2017-12-20T15:40:35.621Z,68.03
2017-12-20T15:43:04.427Z,70.07
2017-12-20T15:45:34.055Z,56.13
2017-12-20T15:48:02.910Z,61.10
2017-12-20T15:50:32.550Z,70.20
2017-12-20T15:53:01.454Z,67.13
2017-12-20T15:55:31.170Z,65.10
2017-12-20T15:58:00.046Z,62.87
2017-12-20T16:00:28.887Z,65.30
2017-12-20T16:02:57.745Z,60.80
2017-12-20T16:05:26.605Z,66.77
2017-12-20T16:07:55.463Z,66.10
2017-12-20T16:10:24.652Z,67.60
2017-12-20T16:12:53.529Z,75.60
2017-12-20T16:15:22.451Z,67.77
2017-12-20T16:17:52.088Z,64.07
2017-12-20T16:20:20.941Z,66.27
2017-12-20T16:22:50.554Z,60.37
2017-12-20T16:25:20.177Z,65.67
2017-12-20T16:27:49.052Z,60.90
2017-12-20T16:30:20.089Z,56.40
2017-12-20T16:32:48.915Z,58.30
2017-12-20T16:35:18.535Z,65.17
2017-12-20T16:37:49.060Z,64.47
2017-12-20T16:40:18.587Z,68.33
2017-12-20T16:42:47.431Z,60.77
2017-12-20T16:45:16.282Z,66.27
2017-12-20T16:47:45.147Z,70.50
2017-12-20T16:50:14.210Z,60.07
2017-12-20T16:52:43.064Z,69.60
2017-12-20T16:55:11.928Z,62.27
2017-12-20T16:57:40.779Z,69.17
2017-12-20T17:00:10.407Z,75.77
2017-12-20T17:02:40.503Z,73.40
2017-12-20T17:05:10.112Z,58.97
2017-12-20T17:07:40.839Z,68.47
2017-12-20T17:10:09.680Z,69.60
2017-12-20T17:12:38.571Z,70.40
2017-12-20T17:15:08.050Z,65.30
2017-12-20T17:17:36.941Z,79.30
2017-12-20T17:20:05.795Z,75.60
2017-12-20T17:22:35.362Z,70.20
2017-12-20T17:25:04.212Z,67.50
2017-12-20T17:27:33.848Z,75.33
2017-12-20T17:30:02.745Z,69.07
2017-12-20T17:32:32.379Z,56.50
2017-12-20T17:35:01.246Z,68.50
2017-12-20T17:37:30.882Z,57.63
2017-12-20T17:39:59.764Z,70.67
2017-12-20T17:42:29.382Z,67.10
2017-12-20T17:44:58.275Z,65.03
2017-12-20T17:47:27.114Z,65.63
2017-12-20T17:49:56.727Z,60.67
2017-12-20T17:52:26.374Z,67.50
2017-12-20T17:54:55.222Z,55.47
2017-12-20T17:57:24.840Z,62.87
2017-12-20T17:59:54.472Z,62.07
2017-12-20T18:02:23.327Z,61.50
2017-12-20T18:04:52.968Z,59.07
2017-12-20T18:07:21.858Z,62.03
2017-12-20T18:09:50.723Z,59.97
2017-12-20T18:12:21.562Z,54.50
2017-12-20T18:14:51.208Z,56.97
2017-12-20T18:17:20.084Z,57.30
2017-12-20T18:19:48.942Z,58.87
2017-12-20T18:22:18.570Z,56.20
2017-12-20T18:24:47.418Z,52.60
2017-12-20T18:27:16.303Z,55.30
2017-12-20T18:29:45.658Z,64.70
2017-12-20T18:32:14.529Z,64.97
2017-12-20T18:34:44.190Z,64.67
2017-12-20T18:37:13.061Z,63.43
2017-12-20T18:39:41.973Z,60.17
2017-12-20T18:42:10.805Z,60.07
2017-12-20T18:44:40.424Z,67.00
2017-12-20T18:47:09.287Z,66.10
2017-12-20T18:49:38.133Z,67.87
2017-12-20T18:52:06.990Z,69.17
2017-12-20T18:54:35.879Z,66.30
2017-12-20T18:57:04.908Z,70.67
2017-12-20T18:59:33.794Z,65.57
2017-12-20T19:02:03.143Z,63.37
2017-12-20T19:04:32.229Z,66.60
2017-12-20T19:07:01.433Z,70.23
2017-12-20T19:09:30.418Z,76.47
2017-12-20T19:11:59.379Z,67.73
2017-12-20T19:14:28.307Z,75.53
2017-12-20T19:16:57.302Z,75.00
2017-12-20T19:19:26.264Z,78.23
2017-12-20T19:21:56.129Z,78.33
2017-12-20T19:24:25.136Z,65.70
2017-12-20T19:26:54.751Z,69.27
2017-12-20T19:29:23.602Z,68.33
2017-12-20T19:31:52.898Z,63.43
2017-12-20T19:34:21.747Z,61.23
2017-12-20T19:36:50.614Z,64.10
2017-12-20T19:39:20.276Z,56.20
2017-12-20T19:41:49.155Z,50.63
2017-12-20T19:44:18.066Z,53.57
2017-12-20T19:46:46.914Z,62.10
2017-12-20T19:49:15.814Z,52.47
2017-12-20T19:51:44.892Z,55.70
2017-12-20T19:54:14.536Z,58.77
2017-12-20T19:56:43.399Z,56.53
2017-12-20T19:59:12.317Z,50.60
2017-12-20T20:01:41.159Z,55.57
2017-12-20T20:04:10.798Z,56.20
2017-12-20T20:06:39.651Z,56.17
2017-12-20T20:09:09.307Z,56.83
2017-12-20T20:11:38.421Z,47.53
2017-12-20T20:14:07.362Z,49.33
2017-12-20T20:16:37.023Z,57.27
2017-12-20T20:19:05.882Z,62.17
2017-12-20T20:21:34.758Z,45.83
2017-12-20T20:24:03.660Z,46.63
2017-12-20T20:26:32.504Z,47.63
2017-12-20T20:29:01.428Z,58.27
2017-12-20T20:31:30.309Z,50.10
2017-12-20T20:33:59.175Z,50.70
2017-12-20T20:36:28.047Z,50.47
2017-12-20T20:39:00.117Z,47.27
2017-12-20T20:41:29.749Z,50.50
2017-12-20T20:43:58.601Z,48.20
2017-12-20T20:46:28.243Z,50.03
2017-12-20T20:48:57.135Z,51.20
2017-12-20T20:51:26.133Z,51.70
2017-12-20T20:53:55.015Z,49.07
2017-12-20T20:56:23.875Z,43.33
2017-12-20T20:58:53.523Z,49.00
2017-12-20T21:01:22.359Z,46.83
2017-12-20T21:03:52.012Z,48.10
2017-12-20T21:06:20.892Z,44.70
2017-12-20T21:08:50.488Z,44.70
2017-12-20T21:11:20.157Z,48.70
2017-12-20T21:13:49.051Z,41.20
2017-12-20T21:16:18.891Z,44.77
2017-12-20T21:18:47.728Z,41.97
2017-12-20T21:21:16.793Z,43.10
2017-12-20T21:23:45.745Z,42.77
2017-12-20T21:26:14.859Z,44.97
2017-12-20T21:28:44.497Z,42.63
2017-12-20T21:31:13.357Z,45.17
2017-12-20T21:33:44.269Z,44.80
2017-12-20T21:36:13.167Z,44.53
2017-12-20T21:38:42.762Z,41.57
2017-12-20T21:41:12.389Z,39.80
2017-12-20T21:43:41.207Z,43.70
2017-12-20T21:46:10.040Z,37.80
2017-12-20T21:48:39.686Z,39.57
2017-12-20T21:51:08.531Z,41.70
2017-12-20T21:53:38.162Z,38.37
2017-12-20T21:56:07.011Z,45.87
2017-12-20T21:58:35.956Z,43.60
2017-12-20T22:01:04.808Z,47.50
2017-12-20T22:03:34.456Z,45.80
2017-12-20T22:06:03.330Z,40.47
2017-12-20T22:08:33.051Z,43.40
2017-12-20T22:11:01.894Z,43.97
2017-12-20T22:13:31.755Z,39.50
2017-12-20T22:16:00.592Z,39.37
2017-12-20T22:18:29.438Z,39.87
2017-12-20T22:20:58.313Z,38.03
2017-12-20T22:23:27.899Z,38.87
2017-12-20T22:25:57.531Z,38.77
2017-12-20T22:28:26.601Z,41.80
2017-12-20T22:30:56.244Z,34.20
2017-12-20T22:33:25.143Z,33.10
2017-12-20T22:35:53.976Z,34.80
2017-12-20T22:38:22.823Z,32.70
2017-12-20T22:40:51.757Z,37.30
2017-12-20T22:43:20.550Z,37.33
2017-12-20T22:45:49.408Z,33.70
2017-12-20T22:48:18.252Z,36.13
2017-12-20T22:50:47.885Z,33.90
2017-12-20T22:53:16.750Z,36.10
2017-12-20T22:55:46.387Z,36.10
2017-12-20T22:58:15.356Z,34.77
2017-12-20T23:00:44.185Z,38.60
2017-12-20T23:03:13.035Z,37.90
2017-12-20T23:05:42.665Z,36.77
2017-12-20T23:08:12.239Z,35.27
2017-12-20T23:10:41.315Z,32.73
2017-12-20T23:13:10.175Z,33.93
2017-12-20T23:15:39.014Z,34.83
2017-12-20T23:18:08.618Z,33.07
2017-12-20T23:20:38.227Z,32.27
2017-12-20T23:23:07.851Z,33.70
2017-12-20T23:25:36.803Z,32.03
2017-12-20T23:28:05.697Z,32.40
2017-12-20T23:30:34.555Z,31.37
2017-12-20T23:33:03.473Z,33.33
2017-12-20T23:35:32.308Z,30.70
2017-12-20T23:38:01.952Z,30.37
2017-12-20T23:40:30.799Z,28.80
2017-12-20T23:42:59.632Z,31.70
2017-12-20T23:45:28.471Z,28.60
2017-12-20T23:47:58.127Z,29.60
2017-12-20T23:50:26.972Z,29.87
2017-12-20T23:52:55.810Z,27.73
2017-12-20T23:55:25.423Z,27.77
2017-12-20T23:57:54.287Z,26.40
